• Join FlightAware (Why Join?)
  • Login
  • US Flag 
10:49PM EDT


 

Airport Tracker/Info


-or-


 

Live Flight TrackerFlight Track Log ✈ IRO8578 ✈ 03-May-2013 ✈ KMKE - KSAW

Flight Track Log - Related Links

Times and Time Zones

All times are in EDT time to prevent confusion due to time zone crossing. See the IRO8578 flight status page for this flight to view local times or setup timezone preferences in your user account.

Time Position Orientation Groundspeed Altitude Reporting Facility
EDT Latitude Longitude Course Direction KTS MPH feet Rate Location/Type
07:50AM 42.9500 -87.8833 360° North 86 99 1,200  Level KMKE
07:51AM 42.9667 -87.8833 360° North 85 98 1,600 660 Climbing KMKE
07:52AM 43.0000 -87.8833 360° North 92 106 2,300 600 Climbing KMKE
07:53AM 43.0167 -87.8667 36° Northeast 103 119 2,800 480 Climbing KMKE
07:53AM 43.0181 -87.8711 293° West 96 110 2,900 540 Climbing Chicago Center
07:54AM 43.0564 -87.8644 North 110 127 3,500 540 Climbing Chicago Center
07:55AM 43.0933 -87.8586 North 122 140 4,000 480 Climbing Chicago Center
07:56AM 43.1303 -87.8544 North 130 150 4,500 480 Climbing Chicago Center
07:57AM 43.1656 -87.8489 North 129 148 5,000 480 Climbing Chicago Center
07:58AM 43.2011 -87.8444 North 128 147 5,500 480 Climbing Chicago Center
07:59AM 43.2364 -87.8392 North 128 147 6,000 420 Climbing Chicago Center
08:00AM 43.2733 -87.8344 North 131 151 6,400 420 Climbing Chicago Center
08:01AM 43.3169 -87.8286 North 134 154 6,900 240 Climbing Chicago Center
08:02AM 43.3564 -87.8236 North 141 162 7,000  Climbing Chicago Center
08:03AM 43.4031 -87.8150 North 164 189 7,000  Level Chicago Center
08:04AM 43.4533 -87.8075 North 178 205 7,000  Level Chicago Center
08:05AM 43.5047 -87.7994 North 184 212 7,000  Level Chicago Center
08:06AM 43.5556 -87.7933 North 184 212 7,000  Level Chicago Center
08:07AM 43.6050 -87.7869 North 179 206 7,000  Level Chicago Center
08:08AM 43.6461 -87.7814 North 180 207 7,000  Level Minneapolis Center
08:09AM 43.6950 -87.7742 North 178 205 7,000  Level Minneapolis Center
08:10AM 43.7442 -87.7672 North 178 205 7,000  Level Minneapolis Center
08:11AM 43.7942 -87.7617 North 179 206 7,000  Level Minneapolis Center
08:12AM 43.8531 -87.7531 North 182 209 7,000  Level Minneapolis Center
08:13AM 43.9039 -87.7458 North 182 209 7,000  Level Minneapolis Center
08:14AM 43.9547 -87.7383 North 183 211 7,000  Level Minneapolis Center
08:15AM 44.0047 -87.7319 North 181 208 7,000  Level Minneapolis Center
08:16AM 44.0553 -87.7247 North 180 207 7,000  Level Minneapolis Center
08:17AM 44.1058 -87.7181 North 181 208 7,000  Level Minneapolis Center
08:18AM 44.1564 -87.7117 North 180 207 7,000  Level Minneapolis Center
08:19AM 44.2047 -87.7039 North 176 203 7,000  Level Minneapolis Center
08:20AM 44.2556 -87.6981 North 180 207 7,000  Level Minneapolis Center
08:21AM 44.3056 -87.6906 North 180 207 7,000  Level Minneapolis Center
08:22AM 44.3636 -87.6836 North 180 207 7,000  Level Minneapolis Center
08:23AM 44.4128 -87.6750 North 179 206 7,000  Level Minneapolis Center
08:24AM 44.4631 -87.6692 North 180 207 7,000  Level Minneapolis Center
08:25AM 44.5119 -87.6619 North 179 206 7,000  Level Minneapolis Center
08:26AM 44.5622 -87.6567 North 180 207 7,000  Level Minneapolis Center
08:27AM 44.6131 -87.6497 North 181 208 7,000  Level Minneapolis Center
08:28AM 44.6625 -87.6431 North 180 207 7,000  Level Minneapolis Center
08:29AM 44.7119 -87.6364 North 179 206 7,000  Level Minneapolis Center
08:30AM 44.7619 -87.6283 North 179 206 7,000  Level Minneapolis Center
08:31AM 44.8111 -87.6219 North 179 206 7,000  Level Minneapolis Center
08:32AM 44.8703 -87.6133 North 178 205 7,000  Level Minneapolis Center
08:33AM 44.9197 -87.6061 North 177 204 7,000  Level Minneapolis Center
08:34AM 44.9694 -87.5997 North 179 206 7,000  Level Minneapolis Center
08:35AM 45.0189 -87.5919 North 179 206 7,000  Level Minneapolis Center
08:37AM 45.0689 -87.5850 North 180 207 7,000  Level Minneapolis Center
08:38AM 45.1192 -87.5772 North 182 209 7,000  Level Minneapolis Center
08:39AM 45.1697 -87.5706 North 182 209 7,000  Level Minneapolis Center
08:40AM 45.2203 -87.5639 North 182 209 7,000  Level Minneapolis Center
08:41AM 45.2706 -87.5742 352° North 183 211 7,100  Climbing Minneapolis Center
08:42AM 45.3206 -87.5864 350° North 182 209 7,100  Level Minneapolis Center
08:43AM 45.3831 -87.5986 352° North 186 214 7,100  Level Minneapolis Center
08:44AM 45.4361 -87.6025 357° North 189 217 7,100 -60 Level Minneapolis Center
08:45AM 45.4869 -87.5906 North 185 213 7,000  Descending Minneapolis Center
08:46AM 45.5436 -87.5775 North 194 223 7,100  Climbing Minneapolis Center
08:47AM 45.5969 -87.5650 North 191 220 7,100  Level Minneapolis Center
08:48AM 45.6506 -87.5544 North 191 220 7,100  Level Minneapolis Center
08:49AM 45.7017 -87.5425 North 182 209 7,100  Level Minneapolis Center
08:50AM 45.7556 -87.5314 North 191 220 7,100  Level Minneapolis Center
08:51AM 45.8089 -87.5186 North 191 220 7,100  Level Minneapolis Center
08:52AM 45.8622 -87.5053 10° North 191 220 7,100  Level Minneapolis Center
08:53AM 45.9161 -87.4944 North 192 221 7,100  Level Minneapolis Center
08:54AM 45.9678 -87.4825 North 184 212 7,100  Level Minneapolis Center
08:55AM 46.0208 -87.4714 North 189 217 7,100 -60 Level Minneapolis Center
08:56AM 46.0597 -87.4622 North 182 209 7,000 -900 Descending Minneapolis Center
08:57AM 46.1297 -87.4456 North 206 237 5,300 -1,380 Descending Minneapolis Center
08:58AM 46.1839 -87.4333 North 194 223 4,200 -840 Descending Minneapolis Center
08:59AM 46.2225 -87.4253 North 181 208 3,600 -900 Descending Minneapolis Center
09:00AM 46.2769 -87.4122 North 158 182 2,400 -900 Descending Minneapolis Center
09:01AM 46.3103 -87.4053 North 125 144 1,800 -600 Descending Minneapolis Center
09:02AM 46.3442 -87.3975 North 120 138 1,200 -600 Descending Minneapolis Center